Time;durP1;ratioP1;P1;durP2;ratioP2;P2;SDS_P1;SDS_P2;PMS_P1;PMS_P2;Temp;Humidity;BMP_temperature;BMP_pressure;BME280_temperature;BME280_humidity;BME280_pressure;Samples;Min_cycle;Max_cycle;Signal;HPM_P1;HPM_P2
2021/09/09 00:00:37;;;;;;;3.73;3.30;;;;;;;17.09;52.12;95631.47;5052474;28;20443;-71
2021/09/09 00:03:05;;;;;;;3.73;3.30;;;;;;;17.04;52.52;95615.59;5052973;28;20435;-75
2021/09/09 00:05:34;;;;;;;8.93;3.37;;;;;;;17.12;52.14;95603.63;5053123;28;20520;-73
2021/09/09 00:08:01;;;;;;;7.43;3.50;;;;;;;17.32;52.43;95621.19;5052765;28;20442;-74
2021/09/09 00:10:29;;;;;;;5.73;3.30;;;;;;;17.18;52.69;95621.84;5053614;28;20435;-73
2021/09/09 00:12:56;;;;;;;5.07;3.13;;;;;;;17.44;51.70;95632.19;5052220;28;20435;-75
2021/09/09 00:15:23;;;;;;;5.77;3.40;;;;;;;17.52;51.83;95628.94;5054242;28;20481;-72
2021/09/09 00:17:51;;;;;;;5.40;3.60;;;;;;;17.34;52.44;95624.34;5038925;28;20542;-72
2021/09/09 00:20:19;;;;;;;10.53;3.73;;;;;;;17.10;52.31;95606.53;5056191;28;20426;-75
2021/09/09 00:22:46;;;;;;;6.80;3.47;;;;;;;17.29;52.94;95632.34;5061009;28;20438;-71
2021/09/09 00:25:14;;;;;;;7.30;3.50;;;;;;;17.28;53.08;95630.78;5048788;28;20493;-73
2021/09/09 00:27:41;;;;;;;7.40;3.73;;;;;;;17.18;52.48;95626.34;5043303;28;20442;-74
2021/09/09 00:30:09;;;;;;;4.20;3.60;;;;;;;17.27;52.94;95622.03;5039860;28;20925;-73
2021/09/09 00:32:37;;;;;;;5.53;3.70;;;;;;;17.39;52.17;95616.34;5052786;28;20889;-75
2021/09/09 00:35:04;;;;;;;7.03;3.90;;;;;;;17.31;52.38;95625.69;5052747;28;21038;-73
2021/09/09 00:37:31;;;;;;;8.13;4.10;;;;;;;17.41;52.50;95630.13;5052692;28;20439;-71
2021/09/09 00:39:58;;;;;;;5.57;4.40;;;;;;;17.41;52.40;95620.28;5038724;28;20444;-70
2021/09/09 00:42:25;;;;;;;8.60;4.07;;;;;;;17.50;52.22;95623.16;5052205;28;20521;-70
2021/09/09 00:44:52;;;;;;;6.70;4.63;;;;;;;17.45;52.63;95623.16;5062033;28;21040;-70
2021/09/09 00:47:19;;;;;;;5.20;4.63;;;;;;;17.45;52.52;95615.22;5061787;28;21042;-71
2021/09/09 00:49:46;;;;;;;6.93;4.40;;;;;;;17.16;52.67;95602.00;5057886;28;20454;-73
2021/09/09 00:52:15;;;;;;;6.87;4.57;;;;;;;17.32;52.55;95613.25;5056151;28;20443;-71
2021/09/09 00:54:44;;;;;;;9.10;5.00;;;;;;;17.27;52.55;95613.28;5052469;28;20447;-72
2021/09/09 00:57:14;;;;;;;6.90;4.77;;;;;;;17.35;53.17;95610.03;5038941;28;20444;-72
2021/09/09 00:59:41;;;;;;;7.17;4.87;;;;;;;17.39;52.96;95616.34;5038908;28;20976;-74
2021/09/09 01:02:08;;;;;;;10.70;5.27;;;;;;;17.36;52.42;95616.91;5039798;28;20439;-70
2021/09/09 01:04:35;;;;;;;11.50;5.13;;;;;;;17.24;53.76;95612.00;5036772;28;20446;-73
2021/09/09 01:07:02;;;;;;;7.87;5.20;;;;;;;17.34;53.04;95619.84;5051955;28;20856;-73
2021/09/09 01:09:30;;;;;;;7.23;4.90;;;;;;;17.23;53.56;95616.50;5051915;28;20445;-71
2021/09/09 01:11:57;;;;;;;8.13;5.47;;;;;;;17.34;53.65;95624.34;5051081;28;20847;-72
2021/09/09 01:14:24;;;;;;;9.00;5.40;;;;;;;17.33;52.81;95628.88;5052236;28;20949;-73
2021/09/09 01:16:51;;;;;;;9.30;5.47;;;;;;;17.37;53.35;95618.50;5046253;28;20436;-73
2021/09/09 01:19:19;;;;;;;7.67;5.03;;;;;;;17.45;53.04;95625.81;5043093;28;20459;-73
2021/09/09 01:21:46;;;;;;;6.63;4.97;;;;;;;17.49;52.89;95621.56;5051601;28;20451;-72
2021/09/09 01:24:18;;;;;;;6.63;5.10;;;;;;;17.44;52.91;95629.56;5052235;28;20505;-71
2021/09/09 01:26:50;;;;;;;6.67;5.20;;;;;;;17.35;52.79;95625.94;5048489;28;20487;-74
2021/09/09 01:29:21;;;;;;;8.37;5.60;;;;;;;17.33;53.25;95620.91;5032417;28;20451;-74
2021/09/09 01:31:48;;;;;;;7.30;4.90;;;;;;;17.33;54.13;95625.41;5048160;28;20439;-71
2021/09/09 01:34:15;;;;;;;8.97;5.67;;;;;;;17.28;53.65;95630.78;5052131;28;20443;-74
2021/09/09 01:36:43;;;;;;;10.07;6.13;;;;;;;17.21;53.46;95621.28;5050227;28;21010;-72
2021/09/09 01:39:11;;;;;;;13.30;5.67;;;;;;;17.14;53.82;95610.22;5039042;28;20438;-75
2021/09/09 01:41:38;;;;;;;8.97;5.70;;;;;;;17.26;54.33;95622.31;5051712;28;20507;-74
2021/09/09 01:44:05;;;;;;;11.07;6.13;;;;;;;17.03;54.33;95606.09;5054758;28;20479;-71
2021/09/09 01:46:32;;;;;;;12.03;6.50;;;;;;;16.95;55.16;95617.25;5055003;28;20493;-73
2021/09/09 01:49:00;;;;;;;11.97;6.67;;;;;;;16.82;55.41;95633.75;5037384;28;20450;-73
2021/09/09 01:51:27;;;;;;;11.13;6.70;;;;;;;17.11;54.45;95621.38;5052700;28;20969;-71
2021/09/09 01:53:54;;;;;;;8.07;6.63;;;;;;;17.12;54.79;95616.84;5044535;28;20445;-73
2021/09/09 01:56:21;;;;;;;12.33;6.90;;;;;;;17.28;54.06;95623.59;5041456;28;20438;-73
2021/09/09 01:58:49;;;;;;;11.73;6.77;;;;;;;16.68;55.51;95632.81;5063189;28;20519;-70
2021/09/09 02:01:16;;;;;;;11.67;6.53;;;;;;;16.91;55.17;95626.84;5061364;28;20501;-71
2021/09/09 02:03:44;;;;;;;9.63;6.73;;;;;;;16.72;55.37;95622.47;5051721;28;20470;-74
2021/09/09 02:06:11;;;;;;;14.60;7.30;;;;;;;16.80;56.01;95620.03;5036317;28;21027;-72
2021/09/09 02:08:38;;;;;;;11.07;6.77;;;;;;;16.96;55.04;95632.09;5053177;28;20451;-72
2021/09/09 02:11:06;;;;;;;10.63;6.40;;;;;;;16.92;55.75;95623.13;5050558;28;20497;-75
2021/09/09 02:13:34;;;;;;;11.53;6.50;;;;;;;16.87;55.19;95625.81;5052708;28;20451;-74
2021/09/09 02:16:01;;;;;;;10.87;6.67;;;;;;;16.83;55.84;95614.19;5060995;28;20457;-72
2021/09/09 02:18:28;;;;;;;13.23;6.80;;;;;;;16.75;55.55;95617.41;5059099;28;20443;-74
2021/09/09 02:20:54;;;;;;;11.90;6.83;;;;;;;16.60;56.32;95628.13;5053720;28;21054;-73
2021/09/09 02:23:21;;;;;;;13.87;7.33;;;;;;;16.59;56.34;95618.59;5040205;28;20443;-73
2021/09/09 02:25:49;;;;;;;14.90;6.60;;;;;;;16.69;56.18;95629.13;5050409;28;20451;-72
2021/09/09 02:28:16;;;;;;;13.07;6.83;;;;;;;16.43;56.74;95622.38;5051080;28;20454;-73
2021/09/09 02:30:43;;;;;;;11.07;6.83;;;;;;;16.45;56.73;95628.19;5050459;28;20443;-73
2021/09/09 02:33:11;;;;;;;9.17;6.60;;;;;;;16.67;56.20;95633.91;5037729;28;20444;-75
2021/09/09 02:35:38;;;;;;;11.07;6.63;;;;;;;16.48;57.02;95627.66;5035512;28;20455;-71
2021/09/09 02:38:05;;;;;;;16.40;7.10;;;;;;;16.69;56.69;95625.69;5038539;28;20444;-73
2021/09/09 02:40:32;;;;;;;12.27;7.10;;;;;;;16.86;55.76;95618.91;5048586;28;20466;-72
2021/09/09 02:42:59;;;;;;;13.63;7.63;;;;;;;17.03;55.78;95624.63;5051389;28;21004;-74
2021/09/09 02:45:26;;;;;;;12.33;7.63;;;;;;;17.02;55.18;95630.97;5042113;28;20442;-75
2021/09/09 02:47:53;;;;;;;10.97;6.37;;;;;;;16.94;55.60;95625.47;5043266;28;20481;-72
2021/09/09 02:50:20;;;;;;;15.43;5.77;;;;;;;16.93;56.00;95627.34;5038147;28;20506;-72
2021/09/09 02:52:46;;;;;;;11.83;5.67;;;;;;;16.91;56.54;95626.03;5059961;28;20439;-71
2021/09/09 02:55:13;;;;;;;9.30;4.63;;;;;;;16.48;56.62;95626.84;5051262;28;20504;-74
2021/09/09 02:57:41;;;;;;;7.93;4.50;;;;;;;16.44;57.22;95637.16;5050332;28;20463;-76
2021/09/09 03:00:09;;;;;;;8.83;4.57;;;;;;;16.75;56.21;95633.28;5044782;28;20888;-75
2021/09/09 03:02:37;;;;;;;9.23;4.87;;;;;;;16.84;55.92;95626.34;5041173;28;20444;-75
2021/09/09 03:05:05;;;;;;;7.73;4.87;;;;;;;16.94;55.99;95625.47;5045691;28;20435;-76
2021/09/09 03:07:32;;;;;;;15.47;5.47;;;;;;;16.76;56.63;95629.59;5048893;28;20976;-73
2021/09/09 03:10:00;;;;;;;9.27;4.37;;;;;;;16.91;56.58;95621.56;5047144;28;20476;-74
2021/09/09 03:12:27;;;;;;;10.57;5.23;;;;;;;16.88;56.55;95632.66;5049109;28;20439;-73
2021/09/09 03:14:54;;;;;;;9.30;4.47;;;;;;;16.94;56.51;95630.78;5069505;28;20435;-71
2021/09/09 03:17:21;;;;;;;9.03;4.63;;;;;;;16.89;55.96;95623.69;5064048;28;20442;-74
2021/09/09 03:19:48;;;;;;;7.43;4.50;;;;;;;16.98;56.18;95624.66;5059556;28;20680;-74
2021/09/09 03:22:14;;;;;;;7.53;4.40;;;;;;;16.84;56.67;95620.28;5045666;28;20436;-71
2021/09/09 03:24:41;;;;;;;5.77;4.27;;;;;;;16.85;56.23;95625.28;5047832;28;20500;-73
2021/09/09 03:27:08;;;;;;;7.67;4.20;;;;;;;16.80;56.31;95620.03;5040027;28;20471;-75
2021/09/09 03:29:35;;;;;;;5.67;3.90;;;;;;;16.84;56.40;95631.63;5042619;28;20490;-72
2021/09/09 03:32:02;;;;;;;6.47;4.10;;;;;;;16.59;56.87;95623.88;5054124;28;20431;-72
2021/09/09 03:34:29;;;;;;;5.03;3.70;;;;;;;16.69;56.80;95623.84;5054672;28;20451;-75
2021/09/09 03:36:56;;;;;;;11.07;3.90;;;;;;;16.66;56.82;95624.34;5052571;28;20443;-74
2021/09/09 03:39:23;;;;;;;12.33;4.10;;;;;;;16.63;57.05;95632.06;5054024;28;20438;-74
2021/09/09 03:41:50;;;;;;;8.87;4.23;;;;;;;16.71;57.28;95621.69;5052944;28;20968;-73
2021/09/09 03:44:17;;;;;;;8.23;3.90;;;;;;;16.63;56.87;95609.03;5061226;28;20863;-73
2021/09/09 03:46:43;;;;;;;5.23;3.30;;;;;;;16.78;56.68;95619.53;5057906;28;21035;-73
2021/09/09 03:49:10;;;;;;;5.33;3.50;;;;;;;16.66;56.38;95619.06;5054521;28;20442;-71
2021/09/09 03:51:38;;;;;;;6.80;3.30;;;;;;;16.57;57.04;95615.44;5043358;28;20438;-74
2021/09/09 03:54:04;;;;;;;6.53;3.60;;;;;;;16.57;57.18;95615.44;5035871;28;20440;-75
2021/09/09 03:56:32;;;;;;;10.23;3.77;;;;;;;16.38;57.65;95622.41;5036044;28;20509;-76
2021/09/09 03:58:59;;;;;;;8.90;3.17;;;;;;;16.45;57.75;95612.31;5037081;28;20455;-72
2021/09/09 04:01:26;;;;;;;9.60;3.70;;;;;;;16.42;57.60;95627.94;5032562;28;20471;-74
2021/09/09 04:03:53;;;;;;;8.50;3.47;;;;;;;16.48;57.53;95611.78;5036225;28;20440;-74
2021/09/09 04:06:21;;;;;;;7.70;3.37;;;;;;;16.25;58.05;95625.66;5034087;28;20942;-72
2021/09/09 04:08:48;;;;;;;8.03;3.40;;;;;;;16.25;58.12;95623.00;5044738;28;20956;-73
2021/09/09 04:11:15;;;;;;;7.17;3.50;;;;;;;16.24;58.02;95606.34;5052710;28;20516;-75
2021/09/09 04:13:42;;;;;;;6.50;3.53;;;;;;;16.36;58.23;95624.53;5048981;28;20439;-70
2021/09/09 04:16:11;;;;;;;9.00;3.83;;;;;;;16.35;58.35;95612.34;5048700;28;20483;-71
2021/09/09 04:18:38;;;;;;;5.87;3.70;;;;;;;16.36;59.12;95616.59;5038179;28;20431;-72
2021/09/09 04:21:05;;;;;;;8.83;3.83;;;;;;;16.59;57.98;95623.88;5039526;28;20432;-73
2021/09/09 04:23:32;;;;;;;6.37;3.50;;;;;;;16.49;57.78;95602.81;5047055;28;20972;-71
2021/09/09 04:26:01;;;;;;;7.17;3.70;;;;;;;16.53;58.37;95603.03;5042783;28;20439;-74
2021/09/09 04:28:27;;;;;;;6.20;3.40;;;;;;;16.44;58.56;95621.28;5052109;28;20904;-74
2021/09/09 04:30:54;;;;;;;7.70;3.67;;;;;;;16.43;58.85;95608.34;5052145;28;20856;-72
2021/09/09 04:33:22;;;;;;;6.60;3.53;;;;;;;16.51;58.91;95608.59;5050887;28;20446;-72
2021/09/09 04:35:49;;;;;;;21.33;5.70;;;;;;;16.37;58.41;95583.78;5051337;28;20447;-73
2021/09/09 04:38:16;;;;;;;27.93;6.03;;;;;;;16.60;59.08;95609.59;5051779;28;20443;-73
2021/09/09 04:40:43;;;;;;;14.07;5.10;;;;;;;16.49;59.19;95602.00;5052822;28;20538;-72
2021/09/09 04:43:10;;;;;;;12.43;4.50;;;;;;;16.53;58.10;95603.03;5052344;28;20475;-72
2021/09/09 04:45:37;;;;;;;6.37;3.57;;;;;;;16.66;58.04;95597.91;5052065;28;20470;-72
2021/09/09 04:48:04;;;;;;;9.53;4.00;;;;;;;16.65;58.67;95601.63;5052729;28;20478;-73
2021/09/09 04:50:31;;;;;;;9.53;3.67;;;;;;;16.69;58.25;95597.38;5051565;28;20592;-75
2021/09/09 04:52:58;;;;;;;8.70;4.47;;;;;;;16.82;58.28;95593.28;5044585;28;20435;-74
2021/09/09 04:55:25;;;;;;;8.20;3.93;;;;;;;16.71;58.51;95600.53;5031893;28;20448;-69
2021/09/09 04:57:52;;;;;;;32.37;25.80;;;;;;;16.72;58.71;95601.31;5052245;28;20439;-73
2021/09/09 05:00:19;;;;;;;33.63;25.10;;;;;;;16.57;57.58;95593.50;5040245;28;20444;-76
2021/09/09 05:02:46;;;;;;;13.00;4.80;;;;;;;16.62;58.69;95602.19;5045442;28;20451;-68
2021/09/09 05:05:13;;;;;;;12.50;3.77;;;;;;;16.93;57.48;95592.91;5031375;28;20474;-67
2021/09/09 05:07:41;;;;;;;22.80;13.90;;;;;;;16.93;57.78;95592.91;5032114;28;20541;-70
2021/09/09 05:10:09;;;;;;;22.00;10.07;;;;;;;16.88;57.70;95576.28;5050994;28;20443;-71
2021/09/09 05:12:37;;;;;;;14.43;8.77;;;;;;;17.12;57.65;95596.47;5036044;28;20428;-70
2021/09/09 05:15:04;;;;;;;9.57;5.17;;;;;;;17.09;57.42;95590.94;5051255;28;20435;-72
2021/09/09 05:17:31;;;;;;;66.20;56.83;;;;;;;17.18;56.99;95584.78;5039840;28;20452;-72
2021/09/09 05:19:58;;;;;;;42.27;31.47;;;;;;;17.45;56.85;95583.41;5043791;28;20440;-69
2021/09/09 05:22:25;;;;;;;10.77;6.23;;;;;;;17.48;55.74;95582.91;5039122;28;20435;-73
2021/09/09 05:24:52;;;;;;;7.57;4.40;;;;;;;16.88;57.10;95579.72;5050866;28;20439;-74
2021/09/09 05:27:19;;;;;;;10.93;4.60;;;;;;;17.15;56.46;95582.66;5039867;28;20528;-71
2021/09/09 05:29:46;;;;;;;7.13;4.60;;;;;;;17.30;56.71;95591.53;5049755;28;20902;-71
2021/09/09 05:32:13;;;;;;;12.60;5.30;;;;;;;17.38;56.81;95594.38;5039536;28;20505;-72
2021/09/09 05:34:40;;;;;;;13.97;5.07;;;;;;;17.30;56.93;95586.25;5043743;28;20448;-75
2021/09/09 05:37:07;;;;;;;7.70;4.10;;;;;;;17.00;57.03;95588.13;5039307;28;20485;-75
2021/09/09 05:39:34;;;;;;;12.03;4.63;;;;;;;17.25;56.66;95584.44;5035198;28;20533;-71
2021/09/09 05:42:00;;;;;;;13.23;4.73;;;;;;;16.83;57.35;95586.91;5047141;28;20458;-75
2021/09/09 05:44:27;;;;;;;6.73;4.83;;;;;;;17.10;56.60;95588.00;5046775;28;20448;-73
2021/09/09 05:46:55;;;;;;;9.03;4.50;;;;;;;17.32;56.68;95584.13;5044705;28;20470;-74
2021/09/09 05:49:21;;;;;;;15.30;4.30;;;;;;;17.04;56.79;95583.81;5045194;28;20479;-73
2021/09/09 05:51:48;;;;;;;10.37;4.57;;;;;;;17.24;56.53;95582.88;5030696;28;20448;-72
2021/09/09 05:54:16;;;;;;;11.30;4.23;;;;;;;17.06;56.35;95586.22;5033741;28;20438;-74
2021/09/09 05:56:43;;;;;;;12.93;4.57;;;;;;;17.13;56.77;95586.66;5050084;28;20779;-72
2021/09/09 05:59:10;;;;;;;9.80;4.57;;;;;;;17.28;57.03;95588.38;5049594;28;20513;-70
2021/09/09 06:01:37;;;;;;;13.63;4.43;;;;;;;17.22;56.73;95558.50;5041277;28;20443;-71
2021/09/09 06:04:08;;;;;;;15.47;4.60;;;;;;;17.10;57.94;95585.38;5050946;28;20451;-74
2021/09/09 06:06:35;;;;;;;8.20;4.60;;;;;;;17.20;58.32;95587.94;5049974;28;20439;-72
2021/09/09 06:09:03;;;;;;;10.20;4.20;;;;;;;16.86;59.18;95589.81;5050607;28;20435;-72
2021/09/09 06:11:30;;;;;;;10.73;4.60;;;;;;;16.80;59.38;95577.69;5036218;28;20438;-74
2021/09/09 06:13:57;;;;;;;10.63;4.30;;;;;;;16.58;59.91;95590.56;5038598;28;20450;-73
2021/09/09 06:16:24;;;;;;;11.07;4.73;;;;;;;16.76;60.50;95589.91;5046522;28;20443;-74
2021/09/09 06:18:51;;;;;;;10.27;5.03;;;;;;;16.86;60.34;95578.44;5038655;28;20471;-73
2021/09/09 06:21:18;;;;;;;7.00;4.90;;;;;;;16.90;60.90;95576.81;5036552;28;20470;-73
2021/09/09 06:23:45;;;;;;;12.93;4.50;;;;;;;17.06;60.58;95591.50;5036647;28;20929;-74
2021/09/09 06:26:17;;;;;;;7.93;4.40;;;;;;;17.04;60.39;95591.75;5037145;28;20543;-73
2021/09/09 06:28:44;;;;;;;12.43;5.63;;;;;;;17.16;60.13;95589.56;5053859;28;20509;-75
2021/09/09 06:31:11;;;;;;;8.67;4.73;;;;;;;16.98;60.92;95584.16;5047742;28;20439;-72
2021/09/09 06:33:38;;;;;;;12.67;4.63;;;;;;;17.24;60.22;95582.88;5050288;28;20517;-73
2021/09/09 06:36:05;;;;;;;8.13;4.03;;;;;;;17.32;59.79;95584.13;5034188;28;20502;-74
2021/09/09 06:38:32;;;;;;;7.27;4.10;;;;;;;17.39;60.10;95592.50;5047351;28;20913;-73
2021/09/09 06:41:00;;;;;;;10.73;3.83;;;;;;;17.43;59.10;95580.25;5049665;28;20470;-72
2021/09/09 06:43:27;;;;;;;9.73;3.97;;;;;;;17.63;58.77;95580.88;5050922;28;20931;-73
2021/09/09 06:45:54;;;;;;;16.33;4.23;;;;;;;17.55;59.58;95588.66;5050817;28;20879;-73
2021/09/09 06:48:21;;;;;;;11.43;3.50;;;;;;;17.57;58.32;95568.75;5051384;28;20482;-72
2021/09/09 06:50:48;;;;;;;10.93;3.47;;;;;;;17.81;57.91;95595.25;5050152;28;20509;-74
2021/09/09 06:53:15;;;;;;;10.60;3.63;;;;;;;17.66;58.01;95584.84;5040550;28;20436;-72
2021/09/09 06:55:41;;;;;;;8.37;4.43;;;;;;;17.86;57.42;95600.50;5043704;28;20885;-75
2021/09/09 06:58:08;;;;;;;9.53;3.93;;;;;;;17.81;57.59;95596.03;5038412;28;20450;-74
2021/09/09 07:00:40;;;;;;;9.00;3.70;;;;;;;17.91;57.42;95598.56;5049528;28;20450;-74
2021/09/09 07:03:08;;;;;;;4.50;3.50;;;;;;;17.97;57.09;95596.66;5037100;28;20439;-71
2021/09/09 07:05:35;;;;;;;8.23;4.10;;;;;;;17.90;57.25;95607.59;5050186;28;20807;-72
2021/09/09 07:08:02;;;;;;;7.17;4.23;;;;;;;18.05;56.39;95609.25;5035852;28;20544;-71
2021/09/09 07:10:29;;;;;;;11.43;4.50;;;;;;;18.16;56.30;95594.81;5050133;28;20450;-71
2021/09/09 07:12:56;;;;;;;8.13;3.63;;;;;;;18.03;55.84;95600.81;5049778;28;20435;-76
2021/09/09 07:15:23;;;;;;;10.97;4.00;;;;;;;18.02;55.65;95604.53;5049741;28;20471;-73
2021/09/09 07:17:53;;;;;;;5.63;3.50;;;;;;;18.06;55.54;95606.31;5036073;28;20829;-76
2021/09/09 07:20:20;;;;;;;9.10;3.40;;;;;;;18.05;55.98;95596.00;5049663;28;20450;-75
2021/09/09 07:22:47;;;;;;;11.77;3.60;;;;;;;17.75;57.23;95594.53;5049508;28;20442;-73
2021/09/09 07:25:14;;;;;;;6.77;2.73;;;;;;;18.04;56.62;95602.41;5049719;28;20450;-74
2021/09/09 07:27:41;;;;;;;6.77;3.10;;;;;;;18.01;56.22;95600.31;5039674;28;20511;-76
2021/09/09 07:30:08;;;;;;;10.37;3.10;;;;;;;18.36;55.74;95594.53;5043630;28;20546;-76
2021/09/09 07:32:36;;;;;;;8.93;3.30;;;;;;;18.37;56.03;95592.66;5038635;28;20474;-75
2021/09/09 07:35:04;;;;;;;6.50;3.47;;;;;;;18.19;56.31;95599.56;5035015;28;20436;-73
2021/09/09 07:37:32;;;;;;;9.07;2.60;;;;;;;18.09;56.70;95611.06;5037521;28;20439;-75
2021/09/09 07:39:59;;;;;;;8.17;3.03;;;;;;;18.18;55.81;95616.53;5036196;28;20435;-74
2021/09/09 07:42:26;;;;;;;9.47;2.83;;;;;;;18.16;54.99;95622.13;5036650;28;20857;-73
2021/09/09 07:44:53;;;;;;;14.03;3.03;;;;;;;18.15;55.87;95625.88;5053730;28;20443;-73
2021/09/09 07:47:24;;;;;;;6.23;3.00;;;;;;;18.18;56.33;95624.47;5039091;28;20474;-73
2021/09/09 07:49:51;;;;;;;9.50;3.13;;;;;;;18.07;56.11;95612.41;5042600;28;20470;-75
2021/09/09 07:52:18;;;;;;;7.17;3.17;;;;;;;17.90;55.81;95628.03;5048955;28;20486;-73
2021/09/09 07:54:44;;;;;;;8.03;2.70;;;;;;;17.48;56.60;95625.31;5053121;28;20447;-76
2021/09/09 07:57:11;;;;;;;7.33;3.20;;;;;;;17.93;55.99;95630.09;5052903;28;20451;-74
2021/09/09 07:59:38;;;;;;;7.63;2.90;;;;;;;17.78;56.51;95611.72;5039878;28;20445;-75
2021/09/09 08:02:06;;;;;;;7.73;3.20;;;;;;;17.78;57.23;95635.56;5055318;28;20484;-77
2021/09/09 08:04:33;;;;;;;6.30;3.10;;;;;;;17.80;58.29;95631.59;5040215;28;20441;-75
2021/09/09 08:07:00;;;;;;;10.07;3.53;;;;;;;17.88;58.25;95635.47;5053256;28;20450;-73
2021/09/09 08:09:27;;;;;;;10.50;3.60;;;;;;;17.93;59.00;95638.88;5050006;28;20479;-76
2021/09/09 08:11:55;;;;;;;8.63;3.77;;;;;;;17.88;59.10;95640.78;5041786;28;20557;-74
2021/09/09 08:14:22;;;;;;;9.27;3.70;;;;;;;18.06;59.43;95626.78;5052936;28;20443;-75
2021/09/09 08:16:49;;;;;;;5.90;3.93;;;;;;;18.03;59.78;95635.28;5048335;28;20451;-78
2021/09/09 08:19:16;;;;;;;9.73;3.90;;;;;;;17.94;59.90;95623.72;5044008;28;20449;-72
2021/09/09 08:21:43;;;;;;;8.47;4.60;;;;;;;17.85;59.23;95620.91;5052459;28;20443;-73
2021/09/09 08:24:10;;;;;;;8.00;4.43;;;;;;;17.92;59.53;95624.00;5052665;28;20492;-76
2021/09/09 08:26:37;;;;;;;7.40;4.00;;;;;;;18.01;59.59;95626.84;5038255;28;20958;-76
2021/09/09 08:29:04;;;;;;;8.50;4.87;;;;;;;18.08;58.95;95617.44;5044510;28;20471;-71
2021/09/09 08:31:31;;;;;;;8.17;4.43;;;;;;;18.20;58.31;95632.94;5032671;28;20451;-74
2021/09/09 08:33:58;;;;;;;6.37;4.33;;;;;;;17.78;58.32;95615.16;5032600;28;20436;-77
2021/09/09 08:36:25;;;;;;;7.70;4.80;;;;;;;17.85;57.80;95620.91;5032221;28;20470;-73
2021/09/09 08:38:52;;;;;;;10.20;5.00;;;;;;;17.74;59.22;95629.25;5051256;28;20960;-73
2021/09/09 08:41:20;;;;;;;12.57;4.63;;;;;;;17.79;58.41;95629.97;5053073;28;20496;-75
2021/09/09 08:43:48;;;;;;;13.70;4.20;;;;;;;17.99;57.87;95626.34;5036876;28;20538;-74
2021/09/09 08:46:18;;;;;;;6.20;4.20;;;;;;;18.07;59.54;95638.94;5043521;28;20475;-75
2021/09/09 08:48:46;;;;;;;7.43;4.70;;;;;;;18.13;60.11;95627.22;5053604;28;20486;-75
2021/09/09 08:51:14;;;;;;;9.07;5.23;;;;;;;18.29;59.93;95631.25;5047464;28;20978;-76
2021/09/09 08:53:42;;;;;;;9.13;4.00;;;;;;;18.03;57.92;95627.31;5046910;28;20451;-75
2021/09/09 08:56:12;;;;;;;7.53;4.03;;;;;;;18.13;59.59;95627.22;5037614;28;20435;-77
2021/09/09 08:58:39;;;;;;;7.23;3.90;;;;;;;17.79;58.86;95626.56;5040241;28;20478;-74
2021/09/09 09:01:09;;;;;;;12.33;5.00;;;;;;;17.89;59.92;95621.94;5049669;28;20441;-76
2021/09/09 09:03:58;;;;;;;8.07;4.70;;;;;;;17.90;59.88;95622.72;5051867;28;20820;-72
2021/09/09 09:06:25;;;;;;;13.73;5.67;;;;;;;18.29;59.70;95631.25;5048410;28;20539;-75
2021/09/09 09:08:57;;;;;;;11.23;5.67;;;;;;;18.54;59.21;95622.19;5032322;28;20474;-74
2021/09/09 09:11:27;;;;;;;11.43;5.20;;;;;;;18.65;59.74;95619.09;5050442;28;20485;-76
2021/09/09 09:13:54;;;;;;;6.43;4.73;;;;;;;18.87;59.92;95621.94;5051947;28;20971;-73
2021/09/09 09:16:23;;;;;;;11.13;5.40;;;;;;;18.81;60.01;95623.09;5047502;28;21039;-74
2021/09/09 09:18:51;;;;;;;9.80;5.33;;;;;;;19.00;59.75;95621.19;5038948;28;20446;-75
2021/09/09 09:21:20;;;;;;;7.13;4.60;;;;;;;19.37;59.01;95616.91;5051293;28;20275;-78
2021/09/09 09:23:52;;;;;;;8.10;4.20;;;;;;;19.50;57.87;95613.47;5045761;28;20442;-75
2021/09/09 09:26:26;;;;;;;8.20;4.00;;;;;;;19.48;56.99;95610.31;5045435;28;20485;-77
2021/09/09 09:28:55;;;;;;;5.23;3.77;;;;;;;19.79;57.15;95600.69;5037502;28;20208;-75
2021/09/09 09:31:30;;;;;;;6.03;3.60;;;;;;;19.80;57.15;95578.31;5051469;28;20201;-74
2021/09/09 09:34:03;;;;;;;7.60;3.67;;;;;;;19.69;57.02;95606.22;5038042;28;20195;-73
2021/09/09 09:36:38;;;;;;;5.80;3.47;;;;;;;19.85;56.88;95600.28;5050951;28;20216;-77
2021/09/09 09:39:18;;;;;;;6.63;3.80;;;;;;;19.48;55.87;95605.00;5043412;28;20291;-73
2021/09/09 09:41:54;;;;;;;7.30;3.30;;;;;;;19.52;55.97;95598.81;5031047;28;20251;-72
2021/09/09 09:44:47;;;;;;;7.33;3.53;;;;;;;19.08;56.81;95601.97;5043323;28;20961;-71
2021/09/09 09:47:16;;;;;;;5.63;2.73;;;;;;;19.14;56.16;95600.78;5048185;28;20278;-73
2021/09/09 09:49:45;;;;;;;4.23;2.97;;;;;;;18.98;56.40;95602.09;5041381;28;20212;-71
2021/09/09 09:52:24;;;;;;;6.00;3.47;;;;;;;19.09;56.31;95574.31;5030814;28;20443;-77
2021/09/09 09:54:53;;;;;;;8.43;3.20;;;;;;;19.10;56.87;95605.09;5031346;28;20439;-75
2021/09/09 09:57:22;;;;;;;5.57;3.20;;;;;;;19.08;56.52;95607.28;5044978;28;20219;-74
2021/09/09 09:59:50;;;;;;;6.07;2.93;;;;;;;18.92;57.94;95599.84;5030992;28;20663;-74
2021/09/09 10:02:17;;;;;;;7.10;3.50;;;;;;;18.60;58.63;95592.63;5031617;28;20671;-74
2021/09/09 10:04:49;;;;;;;4.83;2.90;;;;;;;18.72;58.36;95587.66;5034443;28;20447;-75
2021/09/09 10:07:16;;;;;;;5.63;3.23;;;;;;;18.70;58.51;95587.16;5046313;28;20487;-74
2021/09/09 10:09:44;;;;;;;5.87;3.40;;;;;;;18.61;59.54;95602.16;5045229;28;20228;-74
2021/09/09 10:12:12;;;;;;;9.80;4.13;;;;;;;18.71;59.58;95596.69;5041573;28;20487;-75
2021/09/09 10:14:45;;;;;;;11.43;3.53;;;;;;;18.47;59.57;95595.19;5047523;28;20204;-73
2021/09/09 10:17:16;;;;;;;4.70;3.27;;;;;;;18.61;58.81;95583.56;5032722;28;20535;-72
2021/09/09 10:19:43;;;;;;;5.97;3.63;;;;;;;18.82;58.89;95590.16;5045295;28;20246;-74
2021/09/09 10:22:15;;;;;;;5.50;3.47;;;;;;;18.84;59.26;95601.28;5050417;28;20220;-75
2021/09/09 10:24:44;;;;;;;6.43;4.00;;;;;;;18.84;59.55;95571.28;5050320;28;20451;-74
2021/09/09 10:27:23;;;;;;;7.03;3.57;;;;;;;19.01;58.64;95595.44;5050526;28;20902;-74
2021/09/09 10:30:06;;;;;;;6.57;3.33;;;;;;;18.94;57.58;95579.84;5051188;28;20228;-71
2021/09/09 10:32:36;;;;;;;5.07;3.13;;;;;;;18.88;57.15;95589.00;5050583;28;20283;-75
2021/09/09 10:35:19;;;;;;;4.90;2.90;;;;;;;18.72;57.17;95592.97;5050162;28;20211;-74
2021/09/09 10:37:54;;;;;;;6.93;3.10;;;;;;;18.94;57.72;95579.09;5050378;28;20199;-73
2021/09/09 10:40:37;;;;;;;6.77;3.73;;;;;;;18.92;57.59;95589.97;5050320;28;20476;-75
2021/09/09 10:43:11;;;;;;;6.53;3.60;;;;;;;19.08;57.28;95586.03;5052422;28;20224;-75
2021/09/09 10:45:44;;;;;;;6.40;3.33;;;;;;;19.02;58.03;95576.56;5046558;28;20193;-73
2021/09/09 10:48:14;;;;;;;6.20;2.73;;;;;;;19.09;56.53;95584.94;5043520;28;20212;-77
2021/09/09 10:50:56;;;;;;;7.23;3.00;;;;;;;19.19;56.15;95582.13;5034171;28;20197;-72
2021/09/09 10:53:44;;;;;;;6.77;2.97;;;;;;;19.18;55.22;95575.19;5041148;28;20247;-74
2021/09/09 10:56:16;;;;;;;5.23;2.70;;;;;;;19.38;54.97;95578.63;5044414;28;20205;-73
2021/09/09 10:58:43;;;;;;;4.27;2.80;;;;;;;19.54;55.00;95577.25;5042746;28;20453;-74
2021/09/09 11:01:11;;;;;;;7.13;2.47;;;;;;;19.45;54.54;95579.03;5044588;28;20431;-73
2021/09/09 11:03:48;;;;;;;7.00;2.80;;;;;;;19.41;54.01;95578.03;5041578;28;20671;-76
2021/09/09 11:06:17;;;;;;;4.57;2.40;;;;;;;19.48;53.41;95562.47;5035825;28;20489;-74
2021/09/09 11:08:53;;;;;;;5.57;2.80;;;;;;;19.70;52.43;95570.56;5039158;28;20468;-74
2021/09/09 11:11:27;;;;;;;4.13;2.33;;;;;;;19.47;52.03;95572.31;5033430;28;20195;-76
2021/09/09 11:14:05;;;;;;;5.27;2.20;;;;;;;19.38;52.24;95568.00;5050528;28;20210;-78
2021/09/09 11:16:34;;;;;;;6.17;2.57;;;;;;;19.77;52.43;95560.31;5047067;28;20286;-74
2021/09/09 11:19:03;;;;;;;4.00;2.30;;;;;;;19.91;52.18;95555.75;5042348;28;20193;-75
2021/09/09 11:21:35;;;;;;;4.70;2.70;;;;;;;19.89;51.38;95563.28;5038134;28;20272;-77
2021/09/09 11:24:10;;;;;;;8.43;3.10;;;;;;;19.91;51.57;95534.47;5042910;28;20671;-75
2021/09/09 11:26:42;;;;;;;6.53;2.87;;;;;;;20.10;51.45;95553.78;5053014;28;20199;-73
2021/09/09 11:29:09;;;;;;;10.67;3.97;;;;;;;20.06;52.09;95542.16;5044938;28;20221;-77
2021/09/09 11:31:48;;;;;;;6.20;3.33;;;;;;;20.20;51.24;95537.59;5047814;28;20188;-74
2021/09/09 11:34:23;;;;;;;5.20;3.47;;;;;;;20.34;52.71;95545.56;5053462;28;20610;-79
2021/09/09 11:36:51;;;;;;;7.40;3.70;;;;;;;20.70;50.88;95547.09;5038992;28;20244;-73